Beckers Corners, New York
Current Conditions -  °F | °C
As of 3:51 AM on Thursday 27 Nov 2014 (Local Time) from KALB Reporting Station
Light Snow Light Snow  
Wind Chill: 22°   Ceiling: 1800
Heat Index: 30°   Visibility: 10mi
Dew Point: 27°   Wind: 8mph
Humidity: 88%   Direction: 330°NNW
Pressure: 29.93"   Gusts: NA
Location:  42.5455°N, 73.8296°W
Report Text: KALB 270851Z 33007KT 10SM -SN FEW008 BKN018 BKN070 M01/M03 A2993 RMK AO2 SLP137 PCPN VRY LGT P0000 60002 T10111028 51006
Loading
Personal Weather Stations






























Interactive Weather Map New forecast layout! Learn more

10-Day Weather Forecast

Advertisements
Track Severe Weather on mobile